Accueil
METAR-TAF:

METAR-TAF

Aéroports :

Piešťany, Slovaquie

latitude: 48-37-30N, longitude: 017-49-43E, altitude: 163 m

Observation

Le bulletin a été fait il y a 13 minutes, à 23:30 UTC
Vent 4 kt de nord
Température 16°C
Humidité 88%
Pression 1016 hPa
Visibilité 10 km ou plus

METAR: LZPP 092330Z AUTO 35004KT 9999 NCD 16/14 Q1016

Heure: 01:43 (23:43 UTC)

Prévision

Le bulletin a été fait il y a 6 heures et 43 minutes, à 17:00 UTC
Prévision valable du 09 à 18 UTC au 10 à 03 UTC
Vent 4 kt de sud
Visibilité 10 km ou plus
pas de nuages en-dessous de 1500 mètres et pas de cumulonimbus.

TAF: LZPP 091700Z 0918/1003 18004KT CAVOK

Observations et prévisions météorologiques de plus de 4000 aéroports (messages METAR et TAF).

Les stations disponibles sont représentées par des disques jaunes et rouges sur la carte.

Passer la souris dessus pour voir le nom de la station.

Cliquer dessus pour voir les observations et prévisions météorologiques.

Pour changer de carte: cliquez sur les boutons verts avec une croix noire pour zoomer, sur le bouton vert avec un tiret pour effectuer un zoom arrière, ou sur les flèches vertes pour les cartes adjacentes.


METAR-TAF: